sensor_id;sensor_type;location;lat;lon;timestamp;pressure;altitude;pressure_sealevel;temperature;humidity
29733;BME280;16643;43.158;25.302;2023-02-19T00:00:26;98048.03;;;11.99;53.76
29733;BME280;16643;43.158;25.302;2023-02-19T00:02:52;98045.25;;;12.04;53.71
29733;BME280;16643;43.158;25.302;2023-02-19T00:05:17;98043.97;;;11.92;54.03
29733;BME280;16643;43.158;25.302;2023-02-19T00:07:43;98040.84;;;12.06;53.08
29733;BME280;16643;43.158;25.302;2023-02-19T00:10:08;98041.56;;;12.09;52.68
29733;BME280;16643;43.158;25.302;2023-02-19T00:12:34;98046.56;;;12.15;52.70
29733;BME280;16643;43.158;25.302;2023-02-19T00:14:59;98041.50;;;12.11;53.39
29733;BME280;16643;43.158;25.302;2023-02-19T00:17:25;98049.50;;;12.06;52.98
29733;BME280;16643;43.158;25.302;2023-02-19T00:19:50;98041.00;;;12.01;53.80
29733;BME280;16643;43.158;25.302;2023-02-19T00:22:15;98047.00;;;12.03;53.53
29733;BME280;16643;43.158;25.302;2023-02-19T00:24:41;98042.09;;;11.95;53.44
29733;BME280;16643;43.158;25.302;2023-02-19T00:27:06;98034.84;;;12.04;53.29
29733;BME280;16643;43.158;25.302;2023-02-19T00:29:32;98027.81;;;12.06;52.95
29733;BME280;16643;43.158;25.302;2023-02-19T00:31:57;98034.66;;;12.08;52.88
29733;BME280;16643;43.158;25.302;2023-02-19T00:34:22;98035.00;;;11.99;53.31
29733;BME280;16643;43.158;25.302;2023-02-19T00:36:48;98034.94;;;12.00;52.93
29733;BME280;16643;43.158;25.302;2023-02-19T00:39:14;98030.63;;;11.99;52.63
29733;BME280;16643;43.158;25.302;2023-02-19T00:41:39;98028.81;;;12.02;53.11
29733;BME280;16643;43.158;25.302;2023-02-19T00:44:06;98027.88;;;12.04;52.70
29733;BME280;16643;43.158;25.302;2023-02-19T00:46:38;98022.56;;;12.07;52.63
29733;BME280;16643;43.158;25.302;2023-02-19T00:49:05;98024.22;;;12.08;52.68
29733;BME280;16643;43.158;25.302;2023-02-19T00:51:32;98019.00;;;12.08;52.84
29733;BME280;16643;43.158;25.302;2023-02-19T00:53:58;98017.25;;;12.09;53.00
29733;BME280;16643;43.158;25.302;2023-02-19T00:56:24;98015.44;;;12.11;52.50
29733;BME280;16643;43.158;25.302;2023-02-19T00:58:49;98017.16;;;12.12;52.18
29733;BME280;16643;43.158;25.302;2023-02-19T01:01:15;98010.97;;;12.14;52.78
29733;BME280;16643;43.158;25.302;2023-02-19T01:03:40;98008.28;;;12.17;52.13
29733;BME280;16643;43.158;25.302;2023-02-19T01:06:07;98011.63;;;12.19;52.61
29733;BME280;16643;43.158;25.302;2023-02-19T01:08:32;98005.63;;;12.19;52.02
29733;BME280;16643;43.158;25.302;2023-02-19T01:10:58;98001.34;;;12.16;52.06
29733;BME280;16643;43.158;25.302;2023-02-19T01:13:24;98008.13;;;12.20;52.00
29733;BME280;16643;43.158;25.302;2023-02-19T01:15:50;98007.91;;;12.26;51.91
29733;BME280;16643;43.158;25.302;2023-02-19T01:18:15;98003.25;;;12.34;51.27
29733;BME280;16643;43.158;25.302;2023-02-19T01:20:42;98001.44;;;12.36;51.54
29733;BME280;16643;43.158;25.302;2023-02-19T01:23:08;98003.13;;;12.38;51.31
29733;BME280;16643;43.158;25.302;2023-02-19T01:25:36;98001.31;;;12.40;50.94
29733;BME280;16643;43.158;25.302;2023-02-19T01:28:02;98001.06;;;12.46;50.52
29733;BME280;16643;43.158;25.302;2023-02-19T01:30:27;98005.06;;;12.54;50.45
29733;BME280;16643;43.158;25.302;2023-02-19T01:32:53;98002.34;;;12.57;49.77
29733;BME280;16643;43.158;25.302;2023-02-19T01:35:19;98011.69;;;12.63;49.61
29733;BME280;16643;43.158;25.302;2023-02-19T01:37:45;98006.22;;;12.69;49.71
29733;BME280;16643;43.158;25.302;2023-02-19T01:40:10;98015.25;;;12.82;49.45
29733;BME280;16643;43.158;25.302;2023-02-19T01:42:36;98026.25;;;12.89;49.28
29733;BME280;16643;43.158;25.302;2023-02-19T01:47:45;98034.94;;;12.89;49.12
29733;BME280;16643;43.158;25.302;2023-02-19T01:50:12;98030.56;;;12.90;48.98
29733;BME280;16643;43.158;25.302;2023-02-19T01:52:37;98032.34;;;12.89;48.73
29733;BME280;16643;43.158;25.302;2023-02-19T01:55:03;98035.00;;;12.88;49.11
29733;BME280;16643;43.158;25.302;2023-02-19T01:57:41;98037.94;;;12.80;49.08
29733;BME280;16643;43.158;25.302;2023-02-19T02:00:10;98037.06;;;12.80;49.46
29733;BME280;16643;43.158;25.302;2023-02-19T02:02:38;98048.53;;;12.76;49.06
29733;BME280;16643;43.158;25.302;2023-02-19T02:05:04;98041.03;;;12.68;49.78
29733;BME280;16643;43.158;25.302;2023-02-19T02:07:33;98044.47;;;12.68;48.92
29733;BME280;16643;43.158;25.302;2023-02-19T02:10:17;98054.06;;;12.68;49.55
29733;BME280;16643;43.158;25.302;2023-02-19T02:12:46;98046.44;;;12.63;49.32
29733;BME280;16643;43.158;25.302;2023-02-19T02:15:11;98051.44;;;12.68;49.12
29733;BME280;16643;43.158;25.302;2023-02-19T02:28:05;98054.91;;;12.68;48.59
29733;BME280;16643;43.158;25.302;2023-02-19T02:35:43;98048.72;;;12.71;49.15
29733;BME280;16643;43.158;25.302;2023-02-19T02:38:11;98050.22;;;12.77;48.59
29733;BME280;16643;43.158;25.302;2023-02-19T02:40:38;98050.38;;;12.73;49.74
29733;BME280;16643;43.158;25.302;2023-02-19T02:43:06;98052.00;;;12.76;49.04
29733;BME280;16643;43.158;25.302;2023-02-19T02:45:32;98046.72;;;12.78;49.14
29733;BME280;16643;43.158;25.302;2023-02-19T02:50:45;98045.00;;;12.77;49.14
29733;BME280;16643;43.158;25.302;2023-02-19T02:53:16;98046.78;;;12.76;49.11
29733;BME280;16643;43.158;25.302;2023-02-19T02:56:01;98059.91;;;12.75;48.82
29733;BME280;16643;43.158;25.302;2023-02-19T02:58:27;98070.34;;;12.75;48.99
29733;BME280;16643;43.158;25.302;2023-02-19T03:00:56;98068.44;;;12.78;48.87
29733;BME280;16643;43.158;25.302;2023-02-19T03:03:42;98063.41;;;12.73;49.42
29733;BME280;16643;43.158;25.302;2023-02-19T03:06:09;98069.97;;;12.84;49.05
29733;BME280;16643;43.158;25.302;2023-02-19T03:08:39;98067.28;;;12.85;49.26
29733;BME280;16643;43.158;25.302;2023-02-19T03:11:06;98057.72;;;12.86;49.31
29733;BME280;16643;43.158;25.302;2023-02-19T03:13:54;98049.56;;;12.93;48.89
29733;BME280;16643;43.158;25.302;2023-02-19T03:16:39;98058.34;;;12.91;48.59
29733;BME280;16643;43.158;25.302;2023-02-19T03:19:26;98060.44;;;12.83;48.90
29733;BME280;16643;43.158;25.302;2023-02-19T03:21:54;98076.16;;;12.81;48.82
29733;BME280;16643;43.158;25.302;2023-02-19T03:24:28;98082.63;;;12.71;49.13
29733;BME280;16643;43.158;25.302;2023-02-19T03:27:13;98086.22;;;12.68;49.35
29733;BME280;16643;43.158;25.302;2023-02-19T03:29:41;98093.28;;;12.65;49.54
29733;BME280;16643;43.158;25.302;2023-02-19T03:32:08;98091.63;;;12.64;49.69
29733;BME280;16643;43.158;25.302;2023-02-19T03:34:36;98089.91;;;12.63;48.98
29733;BME280;16643;43.158;25.302;2023-02-19T03:37:17;98102.44;;;12.53;49.57
29733;BME280;16643;43.158;25.302;2023-02-19T03:39:48;98093.50;;;12.60;49.37
29733;BME280;16643;43.158;25.302;2023-02-19T03:45:23;98099.81;;;12.53;49.76
29733;BME280;16643;43.158;25.302;2023-02-19T03:48:14;98094.97;;;12.44;50.23
29733;BME280;16643;43.158;25.302;2023-02-19T03:50:46;98087.09;;;12.46;50.38
29733;BME280;16643;43.158;25.302;2023-02-19T03:53:26;98091.88;;;12.34;50.64
29733;BME280;16643;43.158;25.302;2023-02-19T03:58:26;98086.44;;;12.41;50.53
29733;BME280;16643;43.158;25.302;2023-02-19T04:00:59;98088.19;;;12.40;50.36
29733;BME280;16643;43.158;25.302;2023-02-19T04:03:32;98081.28;;;12.39;50.84
29733;BME280;16643;43.158;25.302;2023-02-19T04:06:01;98068.25;;;12.39;50.60
29733;BME280;16643;43.158;25.302;2023-02-19T04:08:27;98078.78;;;12.36;50.55
29733;BME280;16643;43.158;25.302;2023-02-19T04:10:54;98088.47;;;12.32;50.68
29733;BME280;16643;43.158;25.302;2023-02-19T04:13:44;98088.50;;;12.31;50.78
29733;BME280;16643;43.158;25.302;2023-02-19T04:16:08;98090.47;;;12.26;50.93
29733;BME280;16643;43.158;25.302;2023-02-19T04:18:38;98099.28;;;12.22;51.65
29733;BME280;16643;43.158;25.302;2023-02-19T04:21:04;98100.25;;;12.19;51.36
29733;BME280;16643;43.158;25.302;2023-02-19T04:23:32;98104.72;;;12.16;51.67
29733;BME280;16643;43.158;25.302;2023-02-19T04:25:59;98110.09;;;12.11;52.31
29733;BME280;16643;43.158;25.302;2023-02-19T04:28:26;98103.19;;;12.10;52.23
29733;BME280;16643;43.158;25.302;2023-02-19T04:30:52;98099.91;;;12.05;51.86
29733;BME280;16643;43.158;25.302;2023-02-19T04:33:17;98100.03;;;12.02;52.31
29733;BME280;16643;43.158;25.302;2023-02-19T04:35:43;98094.84;;;12.00;52.60
29733;BME280;16643;43.158;25.302;2023-02-19T04:38:08;98096.03;;;11.92;53.03
29733;BME280;16643;43.158;25.302;2023-02-19T04:40:33;98086.44;;;11.94;52.75
29733;BME280;16643;43.158;25.302;2023-02-19T04:42:59;98101.22;;;11.93;53.15
29733;BME280;16643;43.158;25.302;2023-02-19T04:45:24;98101.06;;;11.96;52.44
29733;BME280;16643;43.158;25.302;2023-02-19T04:47:50;98101.06;;;11.96;53.04
29733;BME280;16643;43.158;25.302;2023-02-19T04:50:15;98103.75;;;11.95;53.26
29733;BME280;16643;43.158;25.302;2023-02-19T04:52:41;98123.03;;;11.89;53.12
29733;BME280;16643;43.158;25.302;2023-02-19T04:55:06;98117.63;;;11.95;52.36
29733;BME280;16643;43.158;25.302;2023-02-19T04:57:32;98118.34;;;11.99;52.73
29733;BME280;16643;43.158;25.302;2023-02-19T04:59:57;98125.25;;;12.00;52.58
29733;BME280;16643;43.158;25.302;2023-02-19T05:02:23;98136.59;;;11.99;53.38
29733;BME280;16643;43.158;25.302;2023-02-19T05:04:48;98131.13;;;12.07;52.22
29733;BME280;16643;43.158;25.302;2023-02-19T05:07:14;98137.09;;;12.09;52.35
29733;BME280;16643;43.158;25.302;2023-02-19T05:09:39;98129.25;;;12.10;52.60
29733;BME280;16643;43.158;25.302;2023-02-19T05:12:04;98132.69;;;12.11;52.33
29733;BME280;16643;43.158;25.302;2023-02-19T05:14:30;98137.91;;;12.11;52.04
29733;BME280;16643;43.158;25.302;2023-02-19T05:16:55;98130.94;;;12.11;51.95
29733;BME280;16643;43.158;25.302;2023-02-19T05:19:21;98135.25;;;12.12;52.03
29733;BME280;16643;43.158;25.302;2023-02-19T05:21:46;98129.84;;;12.18;52.72
29733;BME280;16643;43.158;25.302;2023-02-19T05:24:12;98127.09;;;12.21;52.38
29733;BME280;16643;43.158;25.302;2023-02-19T05:26:37;98131.06;;;12.31;52.56
29733;BME280;16643;43.158;25.302;2023-02-19T05:29:03;98145.69;;;12.35;52.06
29733;BME280;16643;43.158;25.302;2023-02-19T05:31:28;98147.41;;;12.36;52.34
29733;BME280;16643;43.158;25.302;2023-02-19T05:33:54;98150.16;;;12.32;52.63
29733;BME280;16643;43.158;25.302;2023-02-19T05:36:20;98153.47;;;12.37;52.02
29733;BME280;16643;43.158;25.302;2023-02-19T05:38:46;98157.81;;;12.36;52.60
29733;BME280;16643;43.158;25.302;2023-02-19T05:41:12;98161.22;;;12.39;53.16
29733;BME280;16643;43.158;25.302;2023-02-19T05:43:39;98171.47;;;12.43;52.32
29733;BME280;16643;43.158;25.302;2023-02-19T05:46:05;98178.53;;;12.41;52.62
29733;BME280;16643;43.158;25.302;2023-02-19T05:48:30;98187.06;;;12.45;53.29
29733;BME280;16643;43.158;25.302;2023-02-19T05:51:02;98203.22;;;12.54;52.60
29733;BME280;16643;43.158;25.302;2023-02-19T05:53:28;98194.44;;;12.57;53.10
29733;BME280;16643;43.158;25.302;2023-02-19T05:55:53;98203.06;;;12.59;52.96
29733;BME280;16643;43.158;25.302;2023-02-19T05:58:19;98216.00;;;12.62;53.17
29733;BME280;16643;43.158;25.302;2023-02-19T06:00:44;98223.47;;;12.71;53.58
29733;BME280;16643;43.158;25.302;2023-02-19T06:03:11;98224.31;;;12.71;53.80
29733;BME280;16643;43.158;25.302;2023-02-19T06:05:37;98232.91;;;12.75;53.44
29733;BME280;16643;43.158;25.302;2023-02-19T06:08:02;98244.91;;;12.79;54.05
29733;BME280;16643;43.158;25.302;2023-02-19T06:10:28;98235.50;;;12.75;54.56
29733;BME280;16643;43.158;25.302;2023-02-19T06:12:53;98232.75;;;12.78;54.40
29733;BME280;16643;43.158;25.302;2023-02-19T06:15:19;98232.03;;;12.75;54.64
29733;BME280;16643;43.158;25.302;2023-02-19T06:17:45;98226.75;;;12.76;54.90
29733;BME280;16643;43.158;25.302;2023-02-19T06:20:10;98225.56;;;12.85;54.81
29733;BME280;16643;43.158;25.302;2023-02-19T06:22:35;98222.78;;;12.89;55.13
29733;BME280;16643;43.158;25.302;2023-02-19T06:25:01;98230.44;;;12.94;55.35
29733;BME280;16643;43.158;25.302;2023-02-19T06:27:26;98222.31;;;13.01;55.27
29733;BME280;16643;43.158;25.302;2023-02-19T06:29:52;98212.63;;;13.05;55.36
29733;BME280;16643;43.158;25.302;2023-02-19T06:32:17;98215.03;;;13.09;55.11
29733;BME280;16643;43.158;25.302;2023-02-19T06:34:43;98223.47;;;13.18;54.92
29733;BME280;16643;43.158;25.302;2023-02-19T06:37:08;98225.13;;;13.20;54.85
29733;BME280;16643;43.158;25.302;2023-02-19T06:39:35;98235.38;;;13.25;54.71
29733;BME280;16643;43.158;25.302;2023-02-19T06:42:01;98233.44;;;13.30;54.58
29733;BME280;16643;43.158;25.302;2023-02-19T06:44:26;98247.16;;;13.35;54.59
29733;BME280;16643;43.158;25.302;2023-02-19T06:46:55;98249.66;;;13.38;54.56
29733;BME280;16643;43.158;25.302;2023-02-19T06:49:20;98258.94;;;13.45;54.55
29733;BME280;16643;43.158;25.302;2023-02-19T06:51:47;98246.56;;;13.50;54.36
29733;BME280;16643;43.158;25.302;2023-02-19T06:54:12;98243.84;;;13.53;54.38
29733;BME280;16643;43.158;25.302;2023-02-19T06:56:39;98245.22;;;13.62;54.04
29733;BME280;16643;43.158;25.302;2023-02-19T06:59:05;98240.78;;;13.64;54.16
29733;BME280;16643;43.158;25.302;2023-02-19T07:01:31;98242.28;;;13.69;54.27
29733;BME280;16643;43.158;25.302;2023-02-19T07:03:57;98236.56;;;13.81;53.75
29733;BME280;16643;43.158;25.302;2023-02-19T07:06:24;98253.88;;;13.84;53.54
29733;BME280;16643;43.158;25.302;2023-02-19T07:08:50;98240.88;;;13.82;53.82
29733;BME280;16643;43.158;25.302;2023-02-19T07:11:15;98241.41;;;13.91;53.77
29733;BME280;16643;43.158;25.302;2023-02-19T07:13:42;98235.94;;;13.97;53.73
29733;BME280;16643;43.158;25.302;2023-02-19T07:16:08;98241.75;;;14.03;53.42
29733;BME280;16643;43.158;25.302;2023-02-19T07:18:35;98244.81;;;14.13;52.87
29733;BME280;16643;43.158;25.302;2023-02-19T07:21:02;98237.81;;;14.13;52.29
29733;BME280;16643;43.158;25.302;2023-02-19T07:23:29;98238.38;;;14.22;52.73
29733;BME280;16643;43.158;25.302;2023-02-19T07:25:55;98250.25;;;14.29;52.22
29733;BME280;16643;43.158;25.302;2023-02-19T07:28:20;98243.16;;;14.32;52.24
29733;BME280;16643;43.158;25.302;2023-02-19T07:30:47;98240.22;;;14.40;51.95
29733;BME280;16643;43.158;25.302;2023-02-19T07:33:13;98231.84;;;14.52;51.54
29733;BME280;16643;43.158;25.302;2023-02-19T07:35:44;98235.81;;;14.61;51.34
29733;BME280;16643;43.158;25.302;2023-02-19T07:38:09;98236.25;;;14.70;51.30
29733;BME280;16643;43.158;25.302;2023-02-19T07:40:34;98241.06;;;14.79;50.79
29733;BME280;16643;43.158;25.302;2023-02-19T07:43:02;98250.91;;;14.93;50.86
29733;BME280;16643;43.158;25.302;2023-02-19T07:45:27;98236.91;;;14.94;50.51
29733;BME280;16643;43.158;25.302;2023-02-19T07:47:52;98237.91;;;15.10;49.95
29733;BME280;16643;43.158;25.302;2023-02-19T07:50:19;98238.69;;;15.31;49.67
29733;BME280;16643;43.158;25.302;2023-02-19T07:52:45;98227.75;;;15.40;49.33
29733;BME280;16643;43.158;25.302;2023-02-19T07:55:10;98250.81;;;15.51;49.51
29733;BME280;16643;43.158;25.302;2023-02-19T07:57:36;98249.41;;;15.63;49.21
29733;BME280;16643;43.158;25.302;2023-02-19T08:00:02;98254.06;;;15.57;48.84
29733;BME280;16643;43.158;25.302;2023-02-19T08:02:29;98262.66;;;15.59;49.44
29733;BME280;16643;43.158;25.302;2023-02-19T08:05:14;98255.84;;;15.74;49.53
29733;BME280;16643;43.158;25.302;2023-02-19T08:07:40;98253.63;;;15.84;49.28
29733;BME280;16643;43.158;25.302;2023-02-19T08:10:05;98241.38;;;15.84;48.73
29733;BME280;16643;43.158;25.302;2023-02-19T08:12:56;98239.53;;;15.86;49.16
29733;BME280;16643;43.158;25.302;2023-02-19T08:15:40;98231.59;;;15.88;48.79
29733;BME280;16643;43.158;25.302;2023-02-19T08:18:06;98235.34;;;15.82;49.15
29733;BME280;16643;43.158;25.302;2023-02-19T08:20:31;98238.44;;;16.08;49.61
29733;BME280;16643;43.158;25.302;2023-02-19T08:22:57;98232.59;;;16.03;48.30
29733;BME280;16643;43.158;25.302;2023-02-19T08:25:22;98252.34;;;16.10;48.69
29733;BME280;16643;43.158;25.302;2023-02-19T08:27:48;98229.75;;;16.24;48.47
29733;BME280;16643;43.158;25.302;2023-02-19T08:30:14;98243.59;;;16.26;48.89
29733;BME280;16643;43.158;25.302;2023-02-19T08:32:40;98252.63;;;16.38;48.49
29733;BME280;16643;43.158;25.302;2023-02-19T08:35:06;98234.25;;;16.38;48.57
29733;BME280;16643;43.158;25.302;2023-02-19T08:37:31;98251.00;;;16.53;47.93
29733;BME280;16643;43.158;25.302;2023-02-19T08:39:57;98239.41;;;16.57;48.06
29733;BME280;16643;43.158;25.302;2023-02-19T08:42:22;98240.50;;;16.70;47.51
29733;BME280;16643;43.158;25.302;2023-02-19T08:44:48;98228.59;;;16.80;47.49
29733;BME280;16643;43.158;25.302;2023-02-19T08:47:13;98245.00;;;16.84;47.31
29733;BME280;16643;43.158;25.302;2023-02-19T08:49:41;98236.94;;;16.71;46.99
29733;BME280;16643;43.158;25.302;2023-02-19T08:52:07;98236.69;;;16.76;47.20
29733;BME280;16643;43.158;25.302;2023-02-19T08:54:35;98225.34;;;16.75;46.86
29733;BME280;16643;43.158;25.302;2023-02-19T08:57:01;98227.38;;;16.70;47.01
29733;BME280;16643;43.158;25.302;2023-02-19T08:59:29;98232.38;;;16.75;46.88
29733;BME280;16643;43.158;25.302;2023-02-19T09:01:57;98228.16;;;16.88;46.47
29733;BME280;16643;43.158;25.302;2023-02-19T09:04:23;98215.06;;;17.03;46.17
29733;BME280;16643;43.158;25.302;2023-02-19T09:06:49;98222.75;;;16.91;46.88
29733;BME280;16643;43.158;25.302;2023-02-19T09:09:16;98228.59;;;16.96;46.83
29733;BME280;16643;43.158;25.302;2023-02-19T09:11:44;98210.47;;;17.07;46.68
29733;BME280;16643;43.158;25.302;2023-02-19T09:14:11;98215.91;;;17.20;46.47
29733;BME280;16643;43.158;25.302;2023-02-19T09:16:50;98221.81;;;17.39;46.63
29733;BME280;16643;43.158;25.302;2023-02-19T09:19:20;98222.06;;;17.50;46.15
29733;BME280;16643;43.158;25.302;2023-02-19T09:21:50;98220.28;;;17.51;46.42
29733;BME280;16643;43.158;25.302;2023-02-19T09:24:18;98213.63;;;17.45;46.61
29733;BME280;16643;43.158;25.302;2023-02-19T09:26:44;98213.63;;;17.45;46.33
29733;BME280;16643;43.158;25.302;2023-02-19T09:29:12;98209.38;;;17.58;45.92
29733;BME280;16643;43.158;25.302;2023-02-19T09:31:39;98206.72;;;17.74;45.11
29733;BME280;16643;43.158;25.302;2023-02-19T09:34:06;98201.47;;;17.74;45.70
29733;BME280;16643;43.158;25.302;2023-02-19T09:36:32;98197.97;;;17.89;45.37
29733;BME280;16643;43.158;25.302;2023-02-19T09:38:59;98207.75;;;18.01;44.17
29733;BME280;16643;43.158;25.302;2023-02-19T09:41:27;98217.59;;;17.98;44.68
29733;BME280;16643;43.158;25.302;2023-02-19T09:43:58;98214.97;;;17.98;44.11
29733;BME280;16643;43.158;25.302;2023-02-19T09:49:06;98199.19;;;17.98;44.92
29733;BME280;16643;43.158;25.302;2023-02-19T09:51:34;98189.19;;;18.19;44.93
29733;BME280;16643;43.158;25.302;2023-02-19T09:54:03;98193.38;;;18.37;44.67
29733;BME280;16643;43.158;25.302;2023-02-19T09:56:30;98193.72;;;18.31;44.25
29733;BME280;16643;43.158;25.302;2023-02-19T09:59:00;98194.13;;;18.39;44.32
29733;BME280;16643;43.158;25.302;2023-02-19T10:01:27;98187.06;;;18.39;43.33
29733;BME280;16643;43.158;25.302;2023-02-19T10:03:54;98196.16;;;18.34;44.54
29733;BME280;16643;43.158;25.302;2023-02-19T10:06:24;98179.81;;;18.43;43.60
29733;BME280;16643;43.158;25.302;2023-02-19T10:09:15;98182.31;;;18.60;43.27
29733;BME280;16643;43.158;25.302;2023-02-19T10:11:44;98188.53;;;18.73;42.84
29733;BME280;16643;43.158;25.302;2023-02-19T10:14:12;98178.44;;;18.66;42.35
29733;BME280;16643;43.158;25.302;2023-02-19T10:16:42;98173.81;;;18.55;42.94
29733;BME280;16643;43.158;25.302;2023-02-19T10:19:15;98163.31;;;18.69;42.50
29733;BME280;16643;43.158;25.302;2023-02-19T10:21:44;98154.72;;;18.80;42.17
29733;BME280;16643;43.158;25.302;2023-02-19T10:24:15;98157.97;;;18.98;42.23
29733;BME280;16643;43.158;25.302;2023-02-19T10:26:45;98155.81;;;19.04;41.71
29733;BME280;16643;43.158;25.302;2023-02-19T10:29:15;98159.78;;;18.97;41.33
29733;BME280;16643;43.158;25.302;2023-02-19T10:31:40;98153.81;;;19.08;41.20
29733;BME280;16643;43.158;25.302;2023-02-19T10:34:15;98148.25;;;19.12;41.35
29733;BME280;16643;43.158;25.302;2023-02-19T10:36:41;98143.34;;;19.20;41.47
29733;BME280;16643;43.158;25.302;2023-02-19T10:41:52;98133.72;;;18.93;41.26
29733;BME280;16643;43.158;25.302;2023-02-19T10:44:28;98133.81;;;19.05;42.21
29733;BME280;16643;43.158;25.302;2023-02-19T10:47:00;98123.19;;;19.19;41.96
29733;BME280;16643;43.158;25.302;2023-02-19T10:49:48;98125.78;;;19.34;40.61
29733;BME280;16643;43.158;25.302;2023-02-19T10:52:19;98123.28;;;19.45;41.46
29733;BME280;16643;43.158;25.302;2023-02-19T10:54:48;98121.25;;;19.50;40.29
29733;BME280;16643;43.158;25.302;2023-02-19T10:57:28;98121.88;;;19.27;40.85
29733;BME280;16643;43.158;25.302;2023-02-19T11:00:00;98116.97;;;19.20;41.08
29733;BME280;16643;43.158;25.302;2023-02-19T11:02:29;98130.66;;;19.13;41.19
29733;BME280;16643;43.158;25.302;2023-02-19T11:07:54;98113.31;;;19.23;41.02
29733;BME280;16643;43.158;25.302;2023-02-19T11:10:23;98128.59;;;19.18;41.10
29733;BME280;16643;43.158;25.302;2023-02-19T11:13:00;98120.97;;;19.13;40.83
29733;BME280;16643;43.158;25.302;2023-02-19T11:15:27;98108.81;;;18.84;40.96
29733;BME280;16643;43.158;25.302;2023-02-19T11:18:39;98124.94;;;18.65;42.03
29733;BME280;16643;43.158;25.302;2023-02-19T11:20:52;98110.53;;;18.42;42.20
29733;BME280;16643;43.158;25.302;2023-02-19T11:23:30;98122.00;;;18.56;42.43
29733;BME280;16643;43.158;25.302;2023-02-19T11:25:59;98122.47;;;18.48;42.42
29733;BME280;16643;43.158;25.302;2023-02-19T11:28:30;98127.56;;;18.65;42.33
29733;BME280;16643;43.158;25.302;2023-02-19T11:31:11;98108.84;;;18.70;42.20
29733;BME280;16643;43.158;25.302;2023-02-19T11:33:42;98103.19;;;18.76;42.90
29733;BME280;16643;43.158;25.302;2023-02-19T11:38:39;98096.25;;;18.61;42.14
29733;BME280;16643;43.158;25.302;2023-02-19T11:41:11;98099.97;;;18.57;42.26
29733;BME280;16643;43.158;25.302;2023-02-19T11:49:37;98085.31;;;18.67;42.21
29733;BME280;16643;43.158;25.302;2023-02-19T11:54:56;98088.44;;;18.73;41.93
29733;BME280;16643;43.158;25.302;2023-02-19T11:57:32;98087.13;;;18.66;42.13
29733;BME280;16643;43.158;25.302;2023-02-19T12:05:21;98077.31;;;18.82;42.21
29733;BME280;16643;43.158;25.302;2023-02-19T12:08:17;98064.66;;;18.88;42.75
29733;BME280;16643;43.158;25.302;2023-02-19T12:13:52;98083.22;;;18.86;42.67
29733;BME280;16643;43.158;25.302;2023-02-19T12:16:46;98080.97;;;18.80;42.94
29733;BME280;16643;43.158;25.302;2023-02-19T12:24:34;98065.72;;;19.12;42.67
29733;BME280;16643;43.158;25.302;2023-02-19T12:32:29;98059.25;;;19.03;42.09
29733;BME280;16643;43.158;25.302;2023-02-19T12:37:40;98044.13;;;19.19;41.34
29733;BME280;16643;43.158;25.302;2023-02-19T12:50:42;98024.00;;;19.71;40.26
29733;BME280;16643;43.158;25.302;2023-02-19T12:55:44;98012.91;;;19.78;40.39
29733;BME280;16643;43.158;25.302;2023-02-19T12:58:20;98013.44;;;19.83;40.21
29733;BME280;16643;43.158;25.302;2023-02-19T13:00:51;98010.81;;;19.83;40.11
29733;BME280;16643;43.158;25.302;2023-02-19T13:03:22;98016.09;;;19.83;39.87
29733;BME280;16643;43.158;25.302;2023-02-19T13:11:29;98007.31;;;19.57;40.65
29733;BME280;16643;43.158;25.302;2023-02-19T13:14:09;97995.28;;;19.66;40.91
29733;BME280;16643;43.158;25.302;2023-02-19T13:16:57;97999.63;;;19.67;40.58
29733;BME280;16643;43.158;25.302;2023-02-19T13:19:24;97996.03;;;19.68;40.25
29733;BME280;16643;43.158;25.302;2023-02-19T13:21:55;97985.69;;;19.65;40.10
29733;BME280;16643;43.158;25.302;2023-02-19T13:24:46;97988.56;;;19.62;40.41
29733;BME280;16643;43.158;25.302;2023-02-19T13:27:20;97984.13;;;19.50;40.81
29733;BME280;16643;43.158;25.302;2023-02-19T13:30:02;97983.13;;;19.38;41.31
29733;BME280;16643;43.158;25.302;2023-02-19T13:32:46;97978.94;;;19.48;41.42
29733;BME280;16643;43.158;25.302;2023-02-19T13:35:41;97974.06;;;19.55;40.53
29733;BME280;16643;43.158;25.302;2023-02-19T13:38:15;97968.91;;;19.66;40.47
29733;BME280;16643;43.158;25.302;2023-02-19T13:40:59;97966.16;;;19.68;40.62
29733;BME280;16643;43.158;25.302;2023-02-19T13:43:29;97966.59;;;19.74;40.86
29733;BME280;16643;43.158;25.302;2023-02-19T13:45:57;97956.75;;;19.76;40.76
29733;BME280;16643;43.158;25.302;2023-02-19T13:48:25;97955.41;;;19.71;41.34
29733;BME280;16643;43.158;25.302;2023-02-19T14:04:39;97953.56;;;19.20;41.76
29733;BME280;16643;43.158;25.302;2023-02-19T14:14:43;97938.06;;;19.03;42.08
29733;BME280;16643;43.158;25.302;2023-02-19T14:20:38;97941.78;;;18.86;42.34
29733;BME280;16643;43.158;25.302;2023-02-19T14:23:13;97949.47;;;18.77;41.96
29733;BME280;16643;43.158;25.302;2023-02-19T14:25:42;97946.59;;;18.67;42.67
29733;BME280;16643;43.158;25.302;2023-02-19T14:30:52;97945.09;;;18.36;43.98
29733;BME280;16643;43.158;25.302;2023-02-19T14:33:22;97936.84;;;18.28;43.98
29733;BME280;16643;43.158;25.302;2023-02-19T14:35:53;97939.94;;;18.21;44.77
29733;BME280;16643;43.158;25.302;2023-02-19T14:38:35;97934.25;;;18.00;45.09
29733;BME280;16643;43.158;25.302;2023-02-19T14:41:02;97932.22;;;17.91;45.44
29733;BME280;16643;43.158;25.302;2023-02-19T14:43:28;97932.59;;;17.85;44.74
29733;BME280;16643;43.158;25.302;2023-02-19T14:45:58;97928.75;;;17.90;45.38
29733;BME280;16643;43.158;25.302;2023-02-19T14:48:29;97922.81;;;17.87;44.64
29733;BME280;16643;43.158;25.302;2023-02-19T14:50:56;97923.66;;;17.87;45.38
29733;BME280;16643;43.158;25.302;2023-02-19T14:53:25;97918.41;;;17.87;45.00